Rheinfels — V2AI4 — position and weather

sailwx.info

Track history (hours):
 
Tides and Currents Weather Stations Pressure Air Temp Water Temp Dewpoint Dewpoint Depression Visibility Wind Speed Wind Dir Waves Ship Positions

Rheinfels

Last reported at 2014-Jul-28 13:30 UTC. Time now 2014-Jul-28 14:26 UTC.
Position N 38°31' W 008°52'.

Length 89 m; draft 3.2 m.

Type: Cargo ship. MMSI: 304010767.

Date/timePositionNaut miles runAvg speedWind from/ knotsBaromVisibWave heightAir tempDewpointWater temp
2014-Jul-28 13:30N 38°31' W 008°52'0 0.0
2014-Jul-28 12:15N 38°31' W 008°52'0 0.0
2014-Jul-28 11:30N 38°31' W 008°52'0 0.0
2014-Jul-28 10:33N 38°31' W 008°52'0 0.0
2014-Jul-28 09:33N 38°31' W 008°52'0 0.0
2014-Jul-28 08:30N 38°31' W 008°52'0 0.0
2014-Jul-28 07:27N 38°31' W 008°52'0 0.0
2014-Jul-28 05:33N 38°31' W 008°52'0 0.0
2014-Jul-28 04:33N 38°31' W 008°52'0 0.0
2014-Jul-28 03:30N 38°31' W 008°52'0 0.0
2014-Jul-28 02:33N 38°31' W 008°52'0 0.0
2014-Jul-28 01:30N 38°31' W 008°52'0 0.0
2014-Jul-28 00:27N 38°31' W 008°52'0 0.0
2014-Jul-27 23:33N 38°31' W 008°52'0 0.0
2014-Jul-27 21:33N 38°31' W 008°52'0 0.0
2014-Jul-27 20:30N 38°31' W 008°52'0 0.0
2014-Jul-27 19:09N 38°31' W 008°52'0 0.0
2014-Jul-27 18:21N 38°31' W 008°52'0 0.0
2014-Jul-27 17:27N 38°31' W 008°52'0 0.0
2014-Jul-27 16:30N 38°31' W 008°52'0 0.0
2014-Jul-27 15:33N 38°31' W 008°52'0 0.0
2014-Jul-27 14:24N 38°31' W 008°52'0 0.0
2014-Jul-27 12:33N 38°31' W 008°52'0 0.0
2014-Jul-27 11:33N 38°31' W 008°52'0 0.0
2014-Jul-27 07:33N 38°31' W 008°52'0 0.0
2014-Jul-27 05:24N 38°31' W 008°52'0 0.0
2014-Jul-27 04:18N 38°31' W 008°52'0 0.0
2014-Jul-27 03:33N 38°31' W 008°52'0 0.0
2014-Jul-27 02:33N 38°31' W 008°52'0 0.0
2014-Jul-27 01:33N 38°31' W 008°52'0 0.0
2014-Jul-27 00:24N 38°31' W 008°52'0 0.0
2014-Jul-26 23:30N 38°31' W 008°52'0 0.0
2014-Jul-26 22:33N 38°31' W 008°52'0 0.0
2014-Jul-26 21:33N 38°31' W 008°52'0 0.0
2014-Jul-26 20:15N 38°31' W 008°52'0 0.0
2014-Jul-26 19:30N 38°31' W 008°52'0 0.0
2014-Jul-26 18:09N 38°31' W 008°52'0 0.0
2014-Jul-26 17:15N 38°31' W 008°52'0 0.0
2014-Jul-26 16:33N 38°31' W 008°52'0 0.0
2014-Jul-26 15:24N 38°31' W 008°52'0 0.0
2014-Jul-26 14:09N 38°31' W 008°52'0 0.0
2014-Jul-26 13:27N 38°31' W 008°52'0 0.0
2014-Jul-26 10:30N 38°31' W 008°52'0 0.0
2014-Jul-26 09:33N 38°31' W 008°52'6 6.1
2014-Jul-26 08:33N 38°27' W 008°58'2 2.4
2014-Jul-26 07:33N 38°25' W 008°58'1 0.5
2014-Jul-26 06:33N 38°24' W 008°59'1 0.6
2014-Jul-26 05:34N 38°24' W 008°60'1 0.7
2014-Jul-26 04:33N 38°24' W 009°00'7 7.5
2014-Jul-26 03:33N 38°21' W 009°09'19 6.2
2014-Jul-26 00:33N 38°37' W 009°22'8 7.6
2014-Jul-25 23:33N 38°41' W 009°15'8 7.9
2014-Jul-25 22:33N 38°40' W 009°05'0 0.2
2014-Jul-25 21:31N 38°40' W 009°04'0 0.0
2014-Jul-25 20:31N 38°40' W 009°04'0 0.0
2014-Jul-25 19:31N 38°40' W 009°04'0 0.0
2014-Jul-25 18:31N 38°40' W 009°04'0 0.0
2014-Jul-25 17:31N 38°40' W 009°04'0 0.0
2014-Jul-25 16:31N 38°40' W 009°04'0 0.0
2014-Jul-25 15:31N 38°40' W 009°04'0 0.0
2014-Jul-25 14:31N 38°40' W 009°04'0 0.0
2014-Jul-25 13:31N 38°40' W 009°04'0 0.0
2014-Jul-25 12:31N 38°40' W 009°04'0 0.0
2014-Jul-25 11:31N 38°40' W 009°04'0 0.0
2014-Jul-25 10:31N 38°40' W 009°04'0 0.0
2014-Jul-25 09:31N 38°40' W 009°04'0 0.0
2014-Jul-25 08:31N 38°40' W 009°04'0 0.0
2014-Jul-25 07:31N 38°40' W 009°04'0 0.0
2014-Jul-25 06:31N 38°40' W 009°04'0 0.0
2014-Jul-25 05:31N 38°40' W 009°04'0 0.0
2014-Jul-25 04:31N 38°40' W 009°04'0 0.0
2014-Jul-25 03:31N 38°40' W 009°04'0 0.0
2014-Jul-25 02:31N 38°40' W 009°04'0 0.0
2014-Jul-25 01:31N 38°40' W 009°04'0 0.0
2014-Jul-25 00:31N 38°40' W 009°04'0 0.0
2014-Jul-24 23:34N 38°40' W 009°04'0 0.1
2014-Jul-24 22:34N 38°40' W 009°05'8 7.7
2014-Jul-24 21:34N 38°41' W 009°14'  
2014-Jul-22 17:27N 40°28' W 009°52'8 9.4
2014-Jul-22 16:34N 40°36' W 009°53'  
2014-Jul-19 07:33N 52°07' W 006°11'1111.3
2014-Jul-19 06:33N 52°18' W 006°04'1111.1
2014-Jul-19 05:33N 52°29' W 005°59'92 8.1
2014-Jul-18 18:14N 54°00' W 006°03'  
Track history (hours):
 
Tides and Currents Weather Stations Pressure Air Temp Water Temp Dewpoint Dewpoint Depression Visibility Wind Speed Wind Dir Waves Ship Positions

Rheinfels

Last reported at 2014-Jul-28 13:30 UTC. Time now 2014-Jul-28 14:26 UTC.
Position N 38°31' W 008°52'.

Length 89 m; draft 3.2 m.

Type: Cargo ship. MMSI: 304010767.

Date/timePositionNaut miles runAvg speedWind from/ knotsBaromVisibWave heightAir tempDewpointWater temp
2014-Jul-28 13:30N 38°31' W 008°52'0 0.0
2014-Jul-28 12:15N 38°31' W 008°52'0 0.0
2014-Jul-28 11:30N 38°31' W 008°52'0 0.0
2014-Jul-28 10:33N 38°31' W 008°52'0 0.0
2014-Jul-28 09:33N 38°31' W 008°52'0 0.0
2014-Jul-28 08:30N 38°31' W 008°52'0 0.0
2014-Jul-28 07:27N 38°31' W 008°52'0 0.0
2014-Jul-28 05:33N 38°31' W 008°52'0 0.0
2014-Jul-28 04:33N 38°31' W 008°52'0 0.0
2014-Jul-28 03:30N 38°31' W 008°52'0 0.0
2014-Jul-28 02:33N 38°31' W 008°52'0 0.0
2014-Jul-28 01:30N 38°31' W 008°52'0 0.0
2014-Jul-28 00:27N 38°31' W 008°52'0 0.0
2014-Jul-27 23:33N 38°31' W 008°52'0 0.0
2014-Jul-27 21:33N 38°31' W 008°52'0 0.0
2014-Jul-27 20:30N 38°31' W 008°52'0 0.0
2014-Jul-27 19:09N 38°31' W 008°52'0 0.0
2014-Jul-27 18:21N 38°31' W 008°52'0 0.0
2014-Jul-27 17:27N 38°31' W 008°52'0 0.0
2014-Jul-27 16:30N 38°31' W 008°52'0 0.0
2014-Jul-27 15:33N 38°31' W 008°52'0 0.0
2014-Jul-27 14:24N 38°31' W 008°52'0 0.0
2014-Jul-27 12:33N 38°31' W 008°52'0 0.0
2014-Jul-27 11:33N 38°31' W 008°52'0 0.0
2014-Jul-27 07:33N 38°31' W 008°52'0 0.0
2014-Jul-27 05:24N 38°31' W 008°52'0 0.0
2014-Jul-27 04:18N 38°31' W 008°52'0 0.0
2014-Jul-27 03:33N 38°31' W 008°52'0 0.0
2014-Jul-27 02:33N 38°31' W 008°52'0 0.0
2014-Jul-27 01:33N 38°31' W 008°52'0 0.0
2014-Jul-27 00:24N 38°31' W 008°52'0 0.0
2014-Jul-26 23:30N 38°31' W 008°52'0 0.0
2014-Jul-26 22:33N 38°31' W 008°52'0 0.0
2014-Jul-26 21:33N 38°31' W 008°52'0 0.0
2014-Jul-26 20:15N 38°31' W 008°52'0 0.0
2014-Jul-26 19:30N 38°31' W 008°52'0 0.0
2014-Jul-26 18:09N 38°31' W 008°52'0 0.0
2014-Jul-26 17:15N 38°31' W 008°52'0 0.0
2014-Jul-26 16:33N 38°31' W 008°52'0 0.0
2014-Jul-26 15:24N 38°31' W 008°52'0 0.0
2014-Jul-26 14:09N 38°31' W 008°52'0 0.0
2014-Jul-26 13:27N 38°31' W 008°52'0 0.0
2014-Jul-26 10:30N 38°31' W 008°52'0 0.0
2014-Jul-26 09:33N 38°31' W 008°52'6 6.1
2014-Jul-26 08:33N 38°27' W 008°58'2 2.4
2014-Jul-26 07:33N 38°25' W 008°58'1 0.5
2014-Jul-26 06:33N 38°24' W 008°59'1 0.6
2014-Jul-26 05:34N 38°24' W 008°60'1 0.7
2014-Jul-26 04:33N 38°24' W 009°00'7 7.5
2014-Jul-26 03:33N 38°21' W 009°09'19 6.2
2014-Jul-26 00:33N 38°37' W 009°22'8 7.6
2014-Jul-25 23:33N 38°41' W 009°15'8 7.9
2014-Jul-25 22:33N 38°40' W 009°05'0 0.2
2014-Jul-25 21:31N 38°40' W 009°04'0 0.0
2014-Jul-25 20:31N 38°40' W 009°04'0 0.0
2014-Jul-25 19:31N 38°40' W 009°04'0 0.0
2014-Jul-25 18:31N 38°40' W 009°04'0 0.0
2014-Jul-25 17:31N 38°40' W 009°04'0 0.0
2014-Jul-25 16:31N 38°40' W 009°04'0 0.0
2014-Jul-25 15:31N 38°40' W 009°04'0 0.0
2014-Jul-25 14:31N 38°40' W 009°04'0 0.0
2014-Jul-25 13:31N 38°40' W 009°04'0 0.0
2014-Jul-25 12:31N 38°40' W 009°04'0 0.0
2014-Jul-25 11:31N 38°40' W 009°04'0 0.0
2014-Jul-25 10:31N 38°40' W 009°04'0 0.0
2014-Jul-25 09:31N 38°40' W 009°04'0 0.0
2014-Jul-25 08:31N 38°40' W 009°04'0 0.0
2014-Jul-25 07:31N 38°40' W 009°04'0 0.0
2014-Jul-25 06:31N 38°40' W 009°04'0 0.0
2014-Jul-25 05:31N 38°40' W 009°04'0 0.0
2014-Jul-25 04:31N 38°40' W 009°04'0 0.0
2014-Jul-25 03:31N 38°40' W 009°04'0 0.0
2014-Jul-25 02:31N 38°40' W 009°04'0 0.0
2014-Jul-25 01:31N 38°40' W 009°04'0 0.0
2014-Jul-25 00:31N 38°40' W 009°04'0 0.0
2014-Jul-24 23:34N 38°40' W 009°04'0 0.1
2014-Jul-24 22:34N 38°40' W 009°05'8 7.7
2014-Jul-24 21:34N 38°41' W 009°14'  
2014-Jul-22 17:27N 40°28' W 009°52'8 9.4
2014-Jul-22 16:34N 40°36' W 009°53'  
2014-Jul-19 07:33N 52°07' W 006°11'1111.3
2014-Jul-19 06:33N 52°18' W 006°04'1111.1
2014-Jul-19 05:33N 52°29' W 005°59'92 8.1
2014-Jul-18 18:14N 54°00' W 006°03'  

Dump ship's entire track history